createdAt,value
2019-02-10T00:00:18.354Z,19.80
2019-02-10T00:02:46.650Z,19.70
2019-02-10T00:05:15.027Z,19.70
2019-02-10T00:07:43.411Z,19.70
2019-02-10T00:10:11.708Z,19.70
2019-02-10T00:12:40.051Z,19.70
2019-02-10T00:15:08.786Z,19.70
2019-02-10T00:17:37.142Z,19.70
2019-02-10T00:20:05.823Z,19.60
2019-02-10T00:22:34.175Z,19.60
2019-02-10T00:25:02.584Z,19.60
2019-02-10T00:27:30.948Z,19.60
2019-02-10T00:29:59.302Z,19.50
2019-02-10T00:32:27.634Z,19.50
2019-02-10T00:34:56.013Z,19.50
2019-02-10T00:37:24.419Z,19.50
2019-02-10T00:39:52.775Z,19.50
2019-02-10T00:42:21.163Z,19.40
2019-02-10T00:44:49.569Z,19.40
2019-02-10T00:47:18.016Z,19.40
2019-02-10T00:49:46.391Z,19.40
2019-02-10T00:52:14.749Z,19.30
2019-02-10T00:54:43.037Z,19.30
2019-02-10T00:57:11.419Z,19.30
2019-02-10T00:59:39.779Z,19.30
2019-02-10T01:02:08.359Z,19.30
2019-02-10T01:04:36.780Z,19.30
2019-02-10T01:07:05.146Z,19.20
2019-02-10T01:09:33.643Z,19.20
2019-02-10T01:12:01.994Z,19.20
2019-02-10T01:14:30.366Z,19.20
2019-02-10T01:16:58.653Z,19.20
2019-02-10T01:19:27.012Z,19.20
2019-02-10T01:21:55.395Z,19.20
2019-02-10T01:24:23.956Z,19.10
2019-02-10T01:26:52.240Z,19.10
2019-02-10T01:29:20.778Z,19.10
2019-02-10T01:31:49.128Z,19.10
2019-02-10T01:34:17.582Z,19.10
2019-02-10T01:36:49.858Z,19.10
2019-02-10T01:39:17.407Z,19.10
2019-02-10T01:41:45.762Z,19.00
2019-02-10T01:44:14.140Z,19.10
2019-02-10T01:46:42.608Z,19.00
2019-02-10T01:49:10.996Z,19.00
2019-02-10T01:51:39.270Z,19.00
2019-02-10T01:54:07.581Z,19.00
2019-02-10T01:56:35.926Z,19.00
2019-02-10T01:59:04.366Z,18.90
2019-02-10T02:01:32.718Z,18.90
2019-02-10T02:04:01.014Z,18.90
2019-02-10T02:06:29.302Z,18.90
2019-02-10T02:08:57.657Z,18.90
2019-02-10T02:11:26.071Z,18.90
2019-02-10T02:13:54.439Z,18.90
2019-02-10T02:16:22.848Z,18.90
2019-02-10T02:18:51.231Z,18.80
2019-02-10T02:21:19.511Z,18.80
2019-02-10T02:23:47.811Z,18.80
2019-02-10T02:26:16.162Z,18.80
2019-02-10T02:28:44.815Z,18.80
2019-02-10T02:31:13.629Z,18.80
2019-02-10T02:33:42.101Z,18.70
2019-02-10T02:36:10.493Z,18.80
2019-02-10T02:38:38.797Z,18.70
2019-02-10T02:41:07.167Z,18.70
2019-02-10T02:43:35.645Z,18.70
2019-02-10T02:46:04.005Z,18.70
2019-02-10T02:48:32.360Z,18.70
2019-02-10T02:51:01.069Z,18.60
2019-02-10T02:53:29.595Z,18.70
2019-02-10T02:55:57.957Z,18.60
2019-02-10T02:58:26.331Z,18.60
2019-02-10T03:00:54.721Z,18.60
2019-02-10T03:03:23.081Z,18.60
2019-02-10T03:05:51.508Z,18.60
2019-02-10T03:08:19.858Z,18.60
2019-02-10T03:10:48.150Z,18.60
2019-02-10T03:13:16.421Z,18.60
2019-02-10T03:15:44.798Z,18.60
2019-02-10T03:18:13.098Z,18.60
2019-02-10T03:20:41.480Z,18.60
2019-02-10T03:23:09.855Z,18.60
2019-02-10T03:25:38.236Z,18.60
2019-02-10T03:28:06.592Z,18.50
2019-02-10T03:30:34.956Z,18.50
2019-02-10T03:33:03.341Z,18.50
2019-02-10T03:35:31.921Z,18.50
2019-02-10T03:38:00.211Z,18.50
2019-02-10T03:40:28.503Z,18.50
2019-02-10T03:42:56.875Z,18.50
2019-02-10T03:45:25.222Z,18.50
2019-02-10T03:47:53.643Z,18.50
2019-02-10T03:50:22.065Z,18.40
2019-02-10T03:52:50.499Z,18.50
2019-02-10T03:55:18.964Z,18.40
2019-02-10T03:57:47.464Z,18.50
2019-02-10T04:00:15.832Z,18.40
2019-02-10T04:02:44.207Z,18.40
2019-02-10T04:05:12.486Z,18.40
2019-02-10T04:07:41.000Z,18.40
2019-02-10T04:10:10.206Z,18.40
2019-02-10T04:12:38.506Z,18.40
2019-02-10T04:15:07.591Z,18.40
2019-02-10T04:17:36.021Z,18.40
2019-02-10T04:20:06.557Z,18.40
2019-02-10T04:22:34.922Z,18.40
2019-02-10T04:25:03.210Z,18.40
2019-02-10T04:27:31.717Z,18.30
2019-02-10T04:30:00.090Z,18.30
2019-02-10T04:32:28.536Z,18.30
2019-02-10T04:34:56.908Z,18.30
2019-02-10T04:37:25.280Z,18.30
2019-02-10T04:39:53.656Z,18.30
2019-02-10T04:42:21.950Z,18.30
2019-02-10T04:44:50.340Z,18.30
2019-02-10T04:47:18.716Z,18.30
2019-02-10T04:49:47.089Z,18.30
2019-02-10T04:52:15.444Z,18.20
2019-02-10T04:54:43.830Z,18.20
2019-02-10T04:57:12.222Z,18.20
2019-02-10T04:59:40.509Z,18.20
2019-02-10T05:02:09.012Z,18.20
2019-02-10T05:04:37.367Z,18.20
2019-02-10T05:07:05.730Z,18.20
2019-02-10T05:09:34.019Z,18.20
2019-02-10T05:12:02.415Z,18.20
2019-02-10T05:14:30.766Z,18.20
2019-02-10T05:16:59.139Z,18.20
2019-02-10T05:19:27.635Z,18.20
2019-02-10T05:21:56.026Z,18.20
2019-02-10T05:24:24.373Z,18.20
2019-02-10T05:26:52.740Z,18.20
2019-02-10T05:29:21.263Z,18.10
2019-02-10T05:31:49.646Z,18.20
2019-02-10T05:34:17.990Z,18.10
2019-02-10T05:36:46.347Z,18.10
2019-02-10T05:39:14.648Z,18.10
2019-02-10T05:41:43.018Z,18.10
2019-02-10T05:44:11.369Z,18.10
2019-02-10T05:46:39.758Z,18.10
2019-02-10T05:49:08.120Z,18.10
2019-02-10T05:51:36.490Z,18.10
2019-02-10T05:54:04.852Z,18.10
2019-02-10T05:56:33.214Z,18.20
2019-02-10T05:59:01.513Z,18.10
2019-02-10T06:02:05.859Z,18.10
2019-02-10T06:04:40.050Z,18.10
2019-02-10T06:07:17.494Z,18.10
2019-02-10T06:09:45.857Z,18.10
2019-02-10T06:12:14.157Z,18.10
2019-02-10T06:14:42.451Z,18.10
2019-02-10T06:17:10.949Z,18.10
2019-02-10T06:19:39.265Z,18.10
2019-02-10T06:22:07.630Z,18.10
2019-02-10T06:24:36.006Z,18.10
2019-02-10T06:27:04.359Z,18.10
2019-02-10T06:29:32.695Z,18.10
2019-02-10T06:32:01.065Z,18.10
2019-02-10T06:34:29.431Z,18.10
2019-02-10T06:36:57.918Z,18.20
2019-02-10T06:39:26.270Z,18.20
2019-02-10T06:41:54.626Z,18.20
2019-02-10T06:44:23.001Z,18.30
2019-02-10T06:46:51.281Z,18.30
2019-02-10T06:49:19.671Z,18.30
2019-02-10T06:51:48.037Z,18.40
2019-02-10T06:54:16.387Z,18.40
2019-02-10T06:56:44.719Z,18.40
2019-02-10T06:59:14.710Z,18.50
2019-02-10T07:01:44.660Z,18.50
2019-02-10T07:04:15.287Z,18.50
2019-02-10T07:06:43.584Z,18.60
2019-02-10T07:09:11.868Z,18.60
2019-02-10T07:11:40.248Z,18.60
2019-02-10T07:14:20.436Z,18.70
2019-02-10T07:16:52.226Z,18.70
2019-02-10T07:19:57.359Z,18.70
2019-02-10T07:22:34.692Z,18.80
2019-02-10T07:25:15.259Z,18.80
2019-02-10T07:27:48.510Z,18.80
2019-02-10T07:30:20.070Z,18.80
2019-02-10T07:32:54.289Z,18.80
2019-02-10T07:35:43.292Z,18.90
2019-02-10T07:38:38.541Z,18.90
2019-02-10T07:41:23.963Z,18.90
2019-02-10T07:44:18.309Z,18.90
2019-02-10T07:46:52.876Z,19.00
2019-02-10T07:49:39.719Z,19.00
2019-02-10T07:52:14.256Z,19.00
2019-02-10T07:54:51.567Z,19.00
2019-02-10T07:57:25.721Z,19.00
2019-02-10T08:00:09.391Z,19.00
2019-02-10T08:02:49.302Z,19.10
2019-02-10T08:05:26.921Z,19.10
2019-02-10T08:08:10.514Z,19.10
2019-02-10T08:10:51.189Z,19.10
2019-02-10T08:13:33.164Z,19.20
2019-02-10T08:16:28.430Z,19.20
2019-02-10T08:19:21.103Z,19.30
2019-02-10T08:22:13.518Z,19.30
2019-02-10T08:24:45.099Z,19.30
2019-02-10T08:27:19.463Z,19.30
2019-02-10T08:29:53.866Z,19.40
2019-02-10T08:32:31.626Z,19.40
2019-02-10T08:35:19.967Z,19.40
2019-02-10T08:38:12.678Z,19.50
2019-02-10T08:40:53.311Z,19.50
2019-02-10T08:43:25.003Z,19.50
2019-02-10T08:45:59.697Z,19.50
2019-02-10T08:48:52.585Z,19.50
2019-02-10T08:51:24.411Z,19.60
2019-02-10T08:53:52.775Z,19.60
2019-02-10T08:56:21.111Z,19.60
2019-02-10T08:58:49.473Z,19.60
2019-02-10T09:01:17.839Z,19.60
2019-02-10T09:03:46.123Z,19.70
2019-02-10T09:06:14.506Z,19.70
2019-02-10T09:08:42.869Z,19.70
2019-02-10T09:11:11.262Z,19.70
2019-02-10T09:13:39.613Z,19.70
2019-02-10T09:16:08.102Z,19.70
2019-02-10T09:18:36.475Z,19.80
2019-02-10T09:21:04.778Z,19.80
2019-02-10T09:23:33.184Z,19.80
2019-02-10T09:26:01.570Z,19.80
2019-02-10T09:28:29.951Z,19.90
2019-02-10T09:30:58.377Z,19.90
2019-02-10T09:33:26.759Z,19.90
2019-02-10T09:35:55.239Z,19.90
2019-02-10T09:38:23.625Z,19.90
2019-02-10T09:40:52.296Z,19.90
2019-02-10T09:43:20.611Z,19.90
2019-02-10T09:45:48.923Z,19.90
2019-02-10T09:48:17.283Z,19.90
2019-02-10T09:50:45.656Z,19.90
2019-02-10T09:53:13.941Z,19.90
2019-02-10T09:55:42.327Z,19.90
2019-02-10T09:58:10.687Z,20.00
2019-02-10T10:00:39.082Z,20.00
2019-02-10T10:03:07.443Z,20.00
2019-02-10T10:05:35.762Z,20.00
2019-02-10T10:08:04.111Z,20.00
2019-02-10T10:10:32.419Z,20.10
2019-02-10T10:13:00.813Z,20.10
2019-02-10T10:15:29.168Z,20.10
2019-02-10T10:17:57.477Z,20.10
2019-02-10T10:20:25.965Z,20.10
2019-02-10T10:22:54.378Z,20.10
2019-02-10T10:25:22.780Z,20.10
2019-02-10T10:27:51.168Z,20.10
2019-02-10T10:30:21.975Z,20.10
2019-02-10T10:32:50.383Z,20.10
2019-02-10T10:35:18.777Z,20.10
2019-02-10T10:37:47.136Z,20.10
2019-02-10T10:40:15.462Z,20.10
2019-02-10T10:42:43.804Z,20.10
2019-02-10T10:45:13.919Z,20.10
2019-02-10T10:47:42.464Z,20.10
2019-02-10T10:50:14.106Z,20.00
2019-02-10T10:52:42.504Z,20.00
2019-02-10T10:55:12.369Z,20.00
2019-02-10T10:57:40.706Z,20.00
2019-02-10T11:00:14.504Z,20.00
2019-02-10T11:02:42.889Z,20.00
2019-02-10T11:05:11.302Z,20.00
2019-02-10T11:07:39.658Z,20.00
2019-02-10T11:10:10.735Z,20.00
2019-02-10T11:12:39.052Z,20.00
2019-02-10T11:15:15.290Z,20.00
2019-02-10T11:17:43.579Z,20.00
2019-02-10T11:20:12.718Z,20.10
2019-02-10T11:22:41.217Z,20.00
2019-02-10T11:25:11.069Z,20.00
2019-02-10T11:27:39.438Z,20.10
2019-02-10T11:30:12.514Z,20.10
2019-02-10T11:32:41.132Z,20.10
2019-02-10T11:35:09.699Z,20.10
2019-02-10T11:37:38.066Z,20.10
2019-02-10T11:40:11.428Z,20.10
2019-02-10T11:42:39.870Z,20.10
2019-02-10T11:45:12.835Z,20.10
2019-02-10T11:47:41.212Z,20.10
2019-02-10T11:50:13.506Z,20.20
2019-02-10T11:52:42.064Z,20.20
2019-02-10T11:55:10.854Z,20.20
2019-02-10T11:57:39.202Z,20.20
2019-02-10T12:00:17.860Z,20.20
2019-02-10T12:02:46.271Z,20.20
2019-02-10T12:05:14.637Z,20.20
2019-02-10T12:07:43.012Z,20.30
2019-02-10T12:10:12.613Z,20.30
2019-02-10T12:12:41.029Z,20.30
2019-02-10T12:15:11.984Z,20.30
2019-02-10T12:17:40.395Z,20.30
2019-02-10T12:20:11.120Z,20.30
2019-02-10T12:22:39.499Z,20.30
2019-02-10T12:25:09.376Z,20.30
2019-02-10T12:27:37.755Z,20.30
2019-02-10T12:30:17.102Z,20.30
2019-02-10T12:32:45.480Z,20.30
2019-02-10T12:35:13.853Z,20.30
2019-02-10T12:37:42.244Z,20.20
2019-02-10T12:40:11.749Z,20.30
2019-02-10T12:42:40.104Z,20.20
2019-02-10T12:45:10.428Z,20.30
2019-02-10T12:47:38.813Z,20.20
2019-02-10T12:50:12.336Z,20.30
2019-02-10T12:52:40.688Z,20.30
2019-02-10T12:55:10.681Z,20.30
2019-02-10T12:57:39.035Z,20.30
2019-02-10T13:00:12.844Z,20.30
2019-02-10T13:02:41.278Z,20.30
2019-02-10T13:05:09.670Z,20.30
2019-02-10T13:07:38.014Z,20.30
2019-02-10T13:10:12.418Z,20.30
2019-02-10T13:12:40.880Z,20.30
2019-02-10T13:15:10.594Z,20.30
2019-02-10T13:17:39.671Z,20.30
2019-02-10T13:20:14.269Z,20.40
2019-02-10T13:22:42.640Z,20.40
2019-02-10T13:25:12.025Z,20.40
2019-02-10T13:27:41.071Z,20.40
2019-02-10T13:30:16.631Z,20.40
2019-02-10T13:32:45.140Z,20.40
2019-02-10T13:35:13.494Z,20.40
2019-02-10T13:37:42.298Z,20.40
2019-02-10T13:40:16.628Z,20.40
2019-02-10T13:42:44.155Z,20.40
2019-02-10T13:45:12.713Z,20.40
2019-02-10T13:47:41.356Z,20.40
2019-02-10T13:50:15.568Z,20.40
2019-02-10T13:52:43.935Z,20.40
2019-02-10T13:55:13.771Z,20.40
2019-02-10T13:57:42.369Z,20.40
2019-02-10T14:00:16.292Z,20.40
2019-02-10T14:02:44.584Z,20.40
2019-02-10T14:05:13.218Z,20.40
2019-02-10T14:07:41.687Z,20.40
2019-02-10T14:10:14.909Z,20.40
2019-02-10T14:12:44.111Z,20.40
2019-02-10T14:15:19.662Z,20.40
2019-02-10T14:17:48.058Z,20.40
2019-02-10T14:20:17.848Z,20.40
2019-02-10T14:22:46.220Z,20.40
2019-02-10T14:25:14.757Z,20.40
2019-02-10T14:27:43.238Z,20.40
2019-02-10T14:30:14.687Z,20.40
2019-02-10T14:32:43.078Z,20.40
2019-02-10T14:35:11.427Z,20.40
2019-02-10T14:37:40.233Z,20.40
2019-02-10T14:40:08.949Z,20.30
2019-02-10T14:42:37.588Z,20.40
2019-02-10T14:45:09.357Z,20.30
2019-02-10T14:47:37.854Z,20.30
2019-02-10T14:50:09.420Z,20.30
2019-02-10T14:52:37.717Z,20.30
2019-02-10T14:55:06.179Z,20.30
2019-02-10T14:57:34.558Z,20.30
2019-02-10T15:00:03.418Z,20.30
2019-02-10T15:02:31.737Z,20.30
2019-02-10T15:05:00.105Z,20.30
2019-02-10T15:07:28.981Z,20.30
2019-02-10T15:09:57.746Z,20.30
2019-02-10T15:12:26.337Z,20.30
2019-02-10T15:14:55.239Z,20.30
2019-02-10T15:17:24.379Z,20.30
2019-02-10T15:19:52.767Z,20.30
2019-02-10T15:22:21.152Z,20.30
2019-02-10T15:24:49.602Z,20.30
2019-02-10T15:27:18.095Z,20.30
2019-02-10T15:29:46.866Z,20.30
2019-02-10T15:32:16.894Z,20.30
2019-02-10T15:34:45.311Z,20.30
2019-02-10T15:37:13.842Z,20.30
2019-02-10T15:39:42.201Z,20.30
2019-02-10T15:42:10.850Z,20.30
2019-02-10T15:44:39.511Z,20.30
2019-02-10T15:47:07.932Z,20.20
2019-02-10T15:49:36.262Z,20.30
2019-02-10T15:52:04.615Z,20.30
2019-02-10T15:54:33.076Z,20.30
2019-02-10T15:57:01.391Z,20.30
2019-02-10T15:59:29.765Z,20.20
2019-02-10T16:01:58.149Z,20.20
2019-02-10T16:04:26.614Z,20.20
2019-02-10T16:06:55.008Z,20.30
2019-02-10T16:09:23.383Z,20.30
2019-02-10T16:11:51.766Z,20.30
2019-02-10T16:14:20.160Z,20.30
2019-02-10T16:16:48.552Z,20.20
2019-02-10T16:19:17.038Z,20.30
2019-02-10T16:21:45.422Z,20.20
2019-02-10T16:24:13.824Z,20.20
2019-02-10T16:26:42.111Z,20.20
2019-02-10T16:29:10.524Z,20.20
2019-02-10T16:31:38.868Z,20.30
2019-02-10T16:34:07.194Z,20.20
2019-02-10T16:36:35.551Z,20.20
2019-02-10T16:39:06.119Z,20.20
2019-02-10T16:41:35.581Z,20.20
2019-02-10T16:44:04.133Z,20.20
2019-02-10T16:46:32.529Z,20.30
2019-02-10T16:49:00.886Z,20.20
2019-02-10T16:51:29.405Z,20.30
2019-02-10T16:53:59.326Z,20.30
2019-02-10T16:56:27.716Z,20.30
2019-02-10T16:58:56.158Z,20.30
2019-02-10T17:01:24.692Z,20.30
2019-02-10T17:03:53.219Z,20.30
2019-02-10T17:06:21.761Z,20.30
2019-02-10T17:08:50.059Z,20.30
2019-02-10T17:11:18.487Z,20.40
2019-02-10T17:13:46.863Z,20.40
2019-02-10T17:16:15.268Z,20.40
2019-02-10T17:18:43.651Z,20.40
2019-02-10T17:21:11.961Z,20.40
2019-02-10T17:23:40.366Z,20.40
2019-02-10T17:26:08.712Z,20.40
2019-02-10T17:28:37.019Z,20.40
2019-02-10T17:31:05.479Z,20.50
2019-02-10T17:33:33.780Z,20.50
2019-02-10T17:36:02.148Z,20.50
2019-02-10T17:38:30.448Z,20.60
2019-02-10T17:41:13.281Z,20.60
2019-02-10T17:43:41.756Z,20.60
2019-02-10T17:46:10.046Z,20.60
2019-02-10T17:48:38.360Z,20.60
2019-02-10T17:51:06.735Z,20.70
2019-02-10T17:53:36.094Z,20.70
2019-02-10T17:56:04.635Z,20.70
2019-02-10T17:58:33.047Z,20.70
2019-02-10T18:01:01.406Z,20.80
2019-02-10T18:03:29.790Z,20.80
2019-02-10T18:05:58.151Z,20.80
2019-02-10T18:08:26.476Z,20.90
2019-02-10T18:10:54.998Z,20.90
2019-02-10T18:13:23.372Z,20.90
2019-02-10T18:16:08.538Z,21.00
2019-02-10T18:18:54.934Z,21.00
2019-02-10T18:21:27.952Z,21.00
2019-02-10T18:24:03.950Z,21.00
2019-02-10T18:26:43.281Z,21.00
2019-02-10T18:29:16.138Z,21.00
2019-02-10T18:31:51.963Z,21.00
2019-02-10T18:34:36.948Z,21.00
2019-02-10T18:37:23.755Z,21.00
2019-02-10T18:39:56.689Z,21.00
2019-02-10T18:42:26.689Z,21.10
2019-02-10T18:44:56.699Z,21.10
2019-02-10T18:47:43.046Z,21.10
2019-02-10T18:50:12.983Z,21.00
2019-02-10T18:52:51.882Z,21.00
2019-02-10T18:55:30.644Z,21.00
2019-02-10T18:58:15.583Z,21.00
2019-02-10T19:01:02.003Z,21.00
2019-02-10T19:03:32.034Z,21.10
2019-02-10T19:06:18.154Z,21.10
2019-02-10T19:09:03.428Z,21.10
2019-02-10T19:11:47.387Z,21.10
2019-02-10T19:14:15.179Z,21.10
2019-02-10T19:16:47.890Z,21.10
2019-02-10T19:19:34.378Z,21.10
2019-02-10T19:22:20.725Z,21.10
2019-02-10T19:24:50.854Z,21.20
2019-02-10T19:27:23.887Z,21.10
2019-02-10T19:30:09.086Z,21.20
2019-02-10T19:32:41.642Z,21.20
2019-02-10T19:35:14.323Z,21.20
2019-02-10T19:37:47.419Z,21.20
2019-02-10T19:40:20.413Z,21.20
2019-02-10T19:42:53.110Z,21.20
2019-02-10T19:45:32.102Z,21.20
2019-02-10T19:48:11.044Z,21.20
2019-02-10T19:50:59.252Z,21.20
2019-02-10T19:53:30.562Z,21.20
2019-02-10T19:56:06.351Z,21.10
2019-02-10T19:58:42.337Z,21.20
2019-02-10T20:01:21.067Z,21.20
2019-02-10T20:03:53.766Z,21.20
2019-02-10T20:06:32.579Z,21.10
2019-02-10T20:09:18.815Z,21.10
2019-02-10T20:11:54.664Z,21.10
2019-02-10T20:14:27.460Z,21.10
2019-02-10T20:16:57.380Z,21.10
2019-02-10T20:19:39.041Z,21.10
2019-02-10T20:22:24.282Z,21.10
2019-02-10T20:25:09.402Z,21.10
2019-02-10T20:27:41.903Z,21.10
2019-02-10T20:30:14.958Z,21.10
2019-02-10T20:32:47.937Z,21.10
2019-02-10T20:35:23.758Z,21.10
2019-02-10T20:37:53.763Z,21.10
2019-02-10T20:40:23.787Z,21.00
2019-02-10T20:43:10.289Z,21.00
2019-02-10T20:45:40.375Z,21.00
2019-02-10T20:48:13.124Z,21.00
2019-02-10T20:50:59.361Z,21.00
2019-02-10T20:53:29.345Z,21.00
2019-02-10T20:55:59.357Z,21.00
2019-02-10T20:58:29.439Z,21.00
2019-02-10T21:00:59.495Z,21.00
2019-02-10T21:03:32.411Z,20.90
2019-02-10T21:06:17.315Z,20.90
2019-02-10T21:08:53.099Z,20.90
2019-02-10T21:11:23.047Z,20.90
2019-02-10T21:13:53.075Z,20.90
2019-02-10T21:16:39.703Z,20.90
2019-02-10T21:19:09.731Z,20.90
2019-02-10T21:21:42.687Z,20.90
2019-02-10T21:24:15.467Z,20.80
2019-02-10T21:26:48.429Z,20.80
2019-02-10T21:29:34.545Z,20.80
2019-02-10T21:32:04.594Z,20.80
2019-02-10T21:34:43.538Z,20.80
2019-02-10T21:37:16.395Z,20.80
2019-02-10T21:39:46.326Z,20.80
2019-02-10T21:42:29.253Z,20.80
2019-02-10T21:45:15.924Z,20.80
2019-02-10T21:47:45.939Z,20.80
2019-02-10T21:50:14.412Z,20.70
2019-02-10T21:52:42.786Z,20.70
2019-02-10T21:55:11.328Z,20.80
2019-02-10T21:57:39.695Z,20.70
2019-02-10T22:00:11.622Z,20.70
2019-02-10T22:02:40.057Z,20.70
2019-02-10T22:05:08.345Z,20.70
2019-02-10T22:07:36.660Z,20.70
2019-02-10T22:10:10.885Z,20.70
2019-02-10T22:12:39.711Z,20.60
2019-02-10T22:15:10.089Z,20.60
2019-02-10T22:17:38.486Z,20.60
2019-02-10T22:20:12.736Z,20.60
2019-02-10T22:22:41.084Z,20.60
2019-02-10T22:25:11.205Z,20.50
2019-02-10T22:27:39.602Z,20.50
2019-02-10T22:30:15.546Z,20.50
2019-02-10T22:32:43.834Z,20.50
2019-02-10T22:35:12.189Z,20.50
2019-02-10T22:37:40.486Z,20.50
2019-02-10T22:40:11.003Z,20.40
2019-02-10T22:42:45.475Z,20.40
2019-02-10T22:45:12.981Z,20.40
2019-02-10T22:47:41.333Z,20.40
2019-02-10T22:50:12.321Z,20.30
2019-02-10T22:52:40.809Z,20.30
2019-02-10T22:55:09.083Z,20.30
2019-02-10T22:57:37.473Z,20.30
2019-02-10T23:00:39.405Z,20.30
2019-02-10T23:03:07.700Z,20.30
2019-02-10T23:05:36.070Z,20.20
2019-02-10T23:08:04.415Z,20.20
2019-02-10T23:10:32.715Z,20.20
2019-02-10T23:13:00.994Z,20.20
2019-02-10T23:15:29.301Z,20.20
2019-02-10T23:17:57.576Z,20.10
2019-02-10T23:20:25.888Z,20.10
2019-02-10T23:22:54.235Z,20.10
2019-02-10T23:25:22.615Z,20.10
2019-02-10T23:27:50.935Z,20.00
2019-02-10T23:30:19.277Z,20.00
2019-02-10T23:32:47.656Z,20.00
2019-02-10T23:35:16.042Z,20.00
2019-02-10T23:37:44.350Z,20.00
2019-02-10T23:40:12.975Z,20.00
2019-02-10T23:42:41.361Z,19.90
2019-02-10T23:45:09.830Z,19.90
2019-02-10T23:47:38.266Z,19.90
2019-02-10T23:50:07.876Z,19.90
2019-02-10T23:52:36.246Z,19.80
2019-02-10T23:55:05.265Z,19.80
2019-02-10T23:57:33.624Z,19.80
